createdAt,value
2018-06-27T00:00:55.088Z,97.0
2018-06-27T00:01:56.788Z,97.1
2018-06-27T00:02:58.540Z,96.9
2018-06-27T00:04:00.252Z,97.3
2018-06-27T00:05:03.294Z,97.0
2018-06-27T00:06:04.887Z,97.7
2018-06-27T00:07:07.948Z,97.7
2018-06-27T00:08:09.729Z,97.4
2018-06-27T00:09:11.440Z,96.9
2018-06-27T00:10:13.187Z,96.7
2018-06-27T00:11:14.974Z,96.9
2018-06-27T00:12:16.778Z,96.9
2018-06-27T00:13:18.505Z,96.9
2018-06-27T00:14:20.188Z,96.9
2018-06-27T00:15:21.895Z,97.0
2018-06-27T00:16:23.678Z,97.1
2018-06-27T00:17:25.397Z,97.3
2018-06-27T00:18:28.721Z,98.1
2018-06-27T00:19:30.470Z,98.0
2018-06-27T00:20:33.918Z,98.1
2018-06-27T00:21:35.536Z,97.7
2018-06-27T00:22:37.339Z,98.1
2018-06-27T00:23:39.127Z,98.2
2018-06-27T00:24:40.834Z,97.8
2018-06-27T00:25:43.392Z,98.3
2018-06-27T00:26:45.082Z,98.1
2018-06-27T00:27:46.820Z,98.9
2018-06-27T00:28:48.616Z,98.4
2018-06-27T00:29:50.391Z,98.4
2018-06-27T00:30:52.155Z,98.4
2018-06-27T00:31:55.302Z,98.7
2018-06-27T00:32:56.830Z,98.7
2018-06-27T00:33:58.653Z,98.2
2018-06-27T00:35:00.435Z,98.1
2018-06-27T00:36:02.116Z,98.8
2018-06-27T00:37:03.881Z,98.7
2018-06-27T00:38:05.607Z,98.6
2018-06-27T00:39:07.301Z,98.4
2018-06-27T00:40:09.060Z,98.4
2018-06-27T00:41:10.828Z,98.2
2018-06-27T00:42:12.572Z,98.6
2018-06-27T00:43:15.420Z,98.1
2018-06-27T00:44:17.191Z,98.4
2018-06-27T00:45:20.281Z,97.8
2018-06-27T00:46:22.033Z,97.6
2018-06-27T00:47:23.774Z,97.9
2018-06-27T00:48:25.529Z,98.0
2018-06-27T00:49:27.369Z,98.1
2018-06-27T00:50:30.429Z,98.6
2018-06-27T00:51:31.988Z,98.6
2018-06-27T00:52:35.177Z,98.6
2018-06-27T00:53:36.753Z,98.2
2018-06-27T00:54:39.599Z,98.3
2018-06-27T00:55:41.358Z,98.5
2018-06-27T00:56:43.165Z,98.9
2018-06-27T00:57:44.965Z,98.8
2018-06-27T00:58:46.698Z,99.2
2018-06-27T00:59:48.442Z,98.8
2018-06-27T01:00:51.289Z,99.5
2018-06-27T01:01:54.271Z,99.5
2018-06-27T01:02:57.139Z,99.4
2018-06-27T01:04:00.009Z,99.6
2018-06-27T01:05:01.643Z,98.8
2018-06-27T01:06:03.383Z,98.8
2018-06-27T01:07:05.150Z,99.0
2018-06-27T01:08:06.959Z,98.8
2018-06-27T01:09:08.677Z,99.3
2018-06-27T01:10:11.940Z,98.8
2018-06-27T01:11:13.655Z,98.7
2018-06-27T01:12:15.415Z,98.7
2018-06-27T01:13:18.625Z,99.0
2018-06-27T01:14:20.181Z,99.1
2018-06-27T01:15:21.934Z,98.9
2018-06-27T01:16:25.254Z,98.9
2018-06-27T01:17:28.654Z,98.8
2018-06-27T01:18:30.163Z,99.1
2018-06-27T01:19:31.942Z,98.9
2018-06-27T01:20:33.675Z,99.2
2018-06-27T01:21:35.465Z,98.8
2018-06-27T01:22:37.160Z,98.6
2018-06-27T01:23:38.908Z,98.9
2018-06-27T01:24:40.654Z,98.7
2018-06-27T01:25:42.390Z,99.1
2018-06-27T01:26:45.536Z,98.9
2018-06-27T01:27:47.159Z,98.9
2018-06-27T01:28:50.446Z,98.8
2018-06-27T01:29:52.014Z,99.1
2018-06-27T01:30:53.846Z,99.1
2018-06-27T01:31:55.599Z,98.7
2018-06-27T01:32:57.307Z,99.0
2018-06-27T01:33:59.026Z,98.7
2018-06-27T01:35:00.754Z,98.8
2018-06-27T01:36:02.481Z,98.6
2018-06-27T01:37:04.169Z,99.1
2018-06-27T01:38:08.375Z,99.1
2018-06-27T01:39:10.133Z,99.3
2018-06-27T01:40:11.956Z,99.3
2018-06-27T01:41:13.675Z,98.8
2018-06-27T01:42:15.389Z,98.9
2018-06-27T01:43:17.126Z,99.1
2018-06-27T01:44:18.891Z,98.8
2018-06-27T01:45:20.600Z,98.8
2018-06-27T01:46:22.408Z,99.1
2018-06-27T01:47:24.209Z,99.2
2018-06-27T01:48:26.003Z,99.3
2018-06-27T01:49:27.684Z,99.0
2018-06-27T01:50:29.437Z,99.6
2018-06-27T01:51:31.158Z,99.5
2018-06-27T01:52:34.290Z,99.4
2018-06-27T01:53:37.251Z,99.9
2018-06-27T01:54:38.818Z,99.1
2018-06-27T01:55:40.609Z,99.5
2018-06-27T01:56:43.768Z,99.4
2018-06-27T01:57:45.475Z,99.0
2018-06-27T01:58:47.251Z,99.4
2018-06-27T01:59:50.249Z,99.6
2018-06-27T02:00:51.940Z,99.6
2018-06-27T02:01:53.721Z,99.3
2018-06-27T02:02:55.482Z,99.4
2018-06-27T02:03:58.821Z,99.4
2018-06-27T02:05:00.482Z,99.4
2018-06-27T02:06:02.218Z,99.4
2018-06-27T02:07:03.993Z,99.7
2018-06-27T02:08:05.693Z,100.0
2018-06-27T02:09:08.403Z,100.0
2018-06-27T02:10:10.160Z,100.0
2018-06-27T02:11:11.921Z,100.0
2018-06-27T02:12:15.176Z,100.0
2018-06-27T02:13:16.796Z,100.0
2018-06-27T02:14:18.530Z,100.0
2018-06-27T02:15:20.309Z,99.9
2018-06-27T02:16:22.129Z,100.0
2018-06-27T02:17:23.864Z,100.0
2018-06-27T02:18:25.609Z,100.0
2018-06-27T02:19:28.848Z,99.2
2018-06-27T02:20:30.497Z,99.3
2018-06-27T02:21:32.256Z,99.2
2018-06-27T02:22:34.082Z,99.2
2018-06-27T02:23:35.890Z,99.3
2018-06-27T02:24:37.675Z,99.1
2018-06-27T02:25:40.648Z,100.0
2018-06-27T02:26:42.229Z,99.8
2018-06-27T02:27:45.913Z,99.6
2018-06-27T02:28:49.037Z,99.8
2018-06-27T02:29:50.671Z,99.7
2018-06-27T02:30:52.355Z,99.9
2018-06-27T02:31:54.050Z,100.0
2018-06-27T02:32:55.833Z,99.8
2018-06-27T02:33:58.981Z,99.7
2018-06-27T02:35:00.632Z,100.0
2018-06-27T02:36:02.408Z,99.7
2018-06-27T02:37:04.148Z,100.0
2018-06-27T02:38:05.801Z,100.0
2018-06-27T02:39:07.599Z,99.7
2018-06-27T02:40:09.235Z,99.7
2018-06-27T02:41:12.525Z,100.0
2018-06-27T02:42:14.219Z,100.0
2018-06-27T02:43:15.920Z,99.7
2018-06-27T02:44:17.671Z,99.7
2018-06-27T02:45:19.505Z,100.0
2018-06-27T02:46:21.218Z,100.0
2018-06-27T02:47:22.952Z,99.7
2018-06-27T02:48:24.720Z,99.7
2018-06-27T02:49:26.453Z,99.8
2018-06-27T02:50:28.196Z,100.0
2018-06-27T02:51:29.924Z,99.8
2018-06-27T02:52:31.760Z,99.7
2018-06-27T02:53:34.897Z,100.0
2018-06-27T02:54:36.621Z,99.2
2018-06-27T02:55:38.790Z,99.2
2018-06-27T02:56:41.619Z,99.5
2018-06-27T02:57:44.303Z,99.2
2018-06-27T02:58:47.150Z,99.6
2018-06-27T02:59:48.788Z,99.3
2018-06-27T03:00:50.516Z,99.1
2018-06-27T03:01:52.287Z,99.1
2018-06-27T03:02:55.236Z,99.1
2018-06-27T03:03:56.935Z,99.2
2018-06-27T03:04:59.794Z,98.8
2018-06-27T03:06:01.634Z,98.9
2018-06-27T03:07:03.414Z,98.9
2018-06-27T03:08:05.164Z,99.0
2018-06-27T03:09:06.985Z,99.1
2018-06-27T03:10:09.277Z,98.8
2018-06-27T03:11:11.049Z,99.6
2018-06-27T03:12:12.810Z,98.8
2018-06-27T03:13:14.700Z,98.8
2018-06-27T03:14:16.483Z,98.9
2018-06-27T03:15:18.215Z,99.5
2018-06-27T03:16:19.990Z,99.3
2018-06-27T03:17:22.779Z,100.0
2018-06-27T03:18:24.456Z,99.9
2018-06-27T03:19:26.220Z,100.0
2018-06-27T03:20:28.005Z,99.2
2018-06-27T03:21:29.684Z,99.1
2018-06-27T03:22:31.360Z,99.1
2018-06-27T03:23:33.117Z,98.8
2018-06-27T03:24:34.830Z,99.1
2018-06-27T03:25:36.590Z,98.9
2018-06-27T03:26:39.631Z,99.2
2018-06-27T03:27:41.441Z,98.9
2018-06-27T03:28:44.107Z,99.5
2018-06-27T03:29:45.734Z,100.0
2018-06-27T03:30:47.474Z,100.0
2018-06-27T03:31:50.384Z,100.0
2018-06-27T03:32:52.091Z,100.0
2018-06-27T03:33:53.868Z,100.0
2018-06-27T03:34:55.596Z,100.0
2018-06-27T03:35:57.374Z,100.0
2018-06-27T03:36:59.178Z,100.0
2018-06-27T03:38:00.889Z,100.0
2018-06-27T03:39:02.539Z,100.0
2018-06-27T03:40:04.283Z,100.0
2018-06-27T03:41:05.967Z,100.0
2018-06-27T03:42:07.753Z,100.0
2018-06-27T03:43:09.526Z,100.0
2018-06-27T03:44:11.363Z,100.0
2018-06-27T03:45:14.285Z,100.0
2018-06-27T03:46:15.945Z,100.0
2018-06-27T03:47:17.685Z,100.0
2018-06-27T03:48:19.452Z,100.0
2018-06-27T03:49:21.252Z,100.0
2018-06-27T03:50:23.033Z,100.0
2018-06-27T03:51:24.771Z,100.0
2018-06-27T03:52:26.460Z,100.0
2018-06-27T03:53:29.677Z,100.0
2018-06-27T03:54:31.352Z,100.0
2018-06-27T03:55:33.186Z,100.0
2018-06-27T03:56:34.938Z,100.0
2018-06-27T03:57:37.880Z,100.0
2018-06-27T03:58:39.498Z,100.0
2018-06-27T03:59:41.328Z,100.0
2018-06-27T04:00:43.069Z,100.0
2018-06-27T04:01:44.766Z,100.0
2018-06-27T04:02:46.505Z,100.0
2018-06-27T04:03:48.174Z,100.0
2018-06-27T04:04:49.932Z,100.0
2018-06-27T04:05:51.671Z,100.0
2018-06-27T04:06:54.484Z,100.0
2018-06-27T04:07:56.136Z,100.0
2018-06-27T04:08:58.199Z,100.0
2018-06-27T04:09:59.969Z,100.0
2018-06-27T04:11:01.777Z,100.0
2018-06-27T04:12:04.385Z,100.0
2018-06-27T04:13:06.260Z,100.0
2018-06-27T04:14:08.466Z,100.0
2018-06-27T04:15:10.206Z,100.0
2018-06-27T04:16:11.988Z,100.0
2018-06-27T04:17:13.729Z,100.0
2018-06-27T04:18:15.530Z,100.0
2018-06-27T04:19:17.319Z,100.0
2018-06-27T04:20:19.109Z,100.0
2018-06-27T04:21:20.877Z,99.6
2018-06-27T04:22:22.635Z,99.4
2018-06-27T04:23:24.459Z,99.5
2018-06-27T04:24:26.251Z,99.0
2018-06-27T04:25:27.905Z,99.7
2018-06-27T04:26:29.697Z,99.6
2018-06-27T04:27:31.432Z,99.5
2018-06-27T04:28:33.206Z,99.5
2018-06-27T04:29:36.295Z,99.7
2018-06-27T04:30:37.883Z,99.7
2018-06-27T04:31:39.572Z,99.2
2018-06-27T04:32:41.274Z,99.4
2018-06-27T04:33:43.039Z,99.6
2018-06-27T04:34:44.759Z,99.4
2018-06-27T04:35:46.680Z,99.3
2018-06-27T04:36:48.285Z,99.2
2018-06-27T04:37:50.044Z,99.8
2018-06-27T04:38:53.249Z,99.2
2018-06-27T04:39:54.985Z,98.8
2018-06-27T04:40:56.762Z,99.3
2018-06-27T04:41:58.462Z,99.4
2018-06-27T04:43:00.203Z,99.3
2018-06-27T04:44:01.914Z,98.9
2018-06-27T04:45:03.742Z,98.7
2018-06-27T04:46:05.421Z,98.8
2018-06-27T04:47:07.167Z,99.2
2018-06-27T04:48:09.120Z,99.1
2018-06-27T04:49:10.879Z,99.9
2018-06-27T04:50:12.585Z,99.7
2018-06-27T04:51:14.273Z,99.4
2018-06-27T04:52:16.081Z,99.3
2018-06-27T04:53:19.189Z,99.4
2018-06-27T04:54:22.280Z,99.5
2018-06-27T04:55:23.912Z,98.8
2018-06-27T04:56:25.688Z,98.6
2018-06-27T04:57:27.430Z,98.4
2018-06-27T04:58:29.239Z,97.3
2018-06-27T04:59:30.948Z,96.7
2018-06-27T05:00:32.714Z,96.2
2018-06-27T05:01:35.502Z,94.8
2018-06-27T05:02:38.310Z,94.0
2018-06-27T05:03:40.075Z,92.7
2018-06-27T05:04:42.703Z,92.9
2018-06-27T05:05:44.454Z,92.0
2018-06-27T05:06:47.215Z,92.0
2018-06-27T05:07:48.832Z,92.1
2018-06-27T05:08:50.611Z,91.0
2018-06-27T05:09:52.350Z,90.1
2018-06-27T05:10:54.098Z,89.8
2018-06-27T05:11:55.854Z,89.4
2018-06-27T05:12:57.506Z,89.1
2018-06-27T05:13:59.255Z,88.6
2018-06-27T05:15:02.129Z,87.8
2018-06-27T05:16:03.841Z,87.7
2018-06-27T05:17:05.465Z,87.3
2018-06-27T05:18:07.197Z,87.3
2018-06-27T05:19:08.982Z,86.8
2018-06-27T05:20:10.718Z,86.4
2018-06-27T05:21:13.291Z,86.7
2018-06-27T05:22:14.999Z,86.6
2018-06-27T05:23:16.686Z,86.4
2018-06-27T05:24:19.273Z,86.2
2018-06-27T05:25:21.042Z,86.2
2018-06-27T05:26:22.759Z,86.1
2018-06-27T05:27:24.329Z,85.1
2018-06-27T05:28:25.752Z,85.7
2018-06-27T05:29:27.240Z,86.1
2018-06-27T05:30:28.756Z,85.3
2018-06-27T05:31:30.243Z,85.1
2018-06-27T05:32:31.700Z,84.9
2018-06-27T05:33:33.173Z,84.5
2018-06-27T05:34:34.687Z,83.8
2018-06-27T05:35:36.169Z,84.5
2018-06-27T05:36:37.712Z,83.6
2018-06-27T05:37:39.167Z,83.8
2018-06-27T05:38:40.590Z,83.0
2018-06-27T05:39:42.112Z,83.1
2018-06-27T05:40:43.592Z,82.9
2018-06-27T05:41:45.032Z,82.1
2018-06-27T05:42:46.478Z,82.3
2018-06-27T05:43:47.906Z,81.7
2018-06-27T05:44:49.419Z,82.3
2018-06-27T05:45:50.881Z,82.1
2018-06-27T05:46:52.381Z,81.8
2018-06-27T05:47:53.818Z,82.0
2018-06-27T05:48:55.271Z,81.0
2018-06-27T05:49:56.713Z,80.8
2018-06-27T05:50:58.159Z,80.7
2018-06-27T05:51:59.610Z,80.2
2018-06-27T05:53:01.037Z,79.4
2018-06-27T05:54:02.493Z,78.8
2018-06-27T05:55:03.966Z,78.5
2018-06-27T05:56:05.417Z,78.3
2018-06-27T05:57:06.875Z,78.0
2018-06-27T05:58:08.358Z,78.1
2018-06-27T05:59:09.821Z,78.6
2018-06-27T06:00:11.272Z,78.3
2018-06-27T06:01:12.724Z,78.2
2018-06-27T06:02:14.184Z,78.2
2018-06-27T06:03:15.666Z,78.3
2018-06-27T06:04:17.141Z,78.5
2018-06-27T06:05:18.617Z,77.7
2018-06-27T06:06:20.084Z,78.1
2018-06-27T06:07:21.549Z,78.3
2018-06-27T06:08:23.016Z,78.0
2018-06-27T06:09:24.456Z,76.8
2018-06-27T06:10:25.925Z,77.2
2018-06-27T06:11:27.394Z,75.9
2018-06-27T06:12:28.789Z,76.8
2018-06-27T06:13:30.236Z,76.8
2018-06-27T06:14:31.756Z,76.5
2018-06-27T06:15:33.193Z,76.8
2018-06-27T06:16:34.646Z,76.2
2018-06-27T06:17:36.109Z,75.3
2018-06-27T06:18:37.550Z,75.4
2018-06-27T06:19:39.089Z,75.0
2018-06-27T06:20:40.526Z,74.4
2018-06-27T06:21:42.002Z,73.9
2018-06-27T06:22:43.435Z,73.8
2018-06-27T06:23:44.870Z,74.0
2018-06-27T06:24:46.362Z,73.2
2018-06-27T06:25:47.810Z,72.4
2018-06-27T06:26:49.321Z,72.7
2018-06-27T06:27:50.849Z,72.1
2018-06-27T06:28:52.318Z,72.7
2018-06-27T06:29:53.771Z,72.4
2018-06-27T06:30:55.215Z,73.3
2018-06-27T06:31:56.741Z,73.2
2018-06-27T06:32:58.227Z,73.8
2018-06-27T06:33:59.668Z,73.1
2018-06-27T06:35:01.171Z,72.0
2018-06-27T06:36:02.611Z,71.2
2018-06-27T06:37:04.101Z,71.8
2018-06-27T06:38:05.565Z,70.5
2018-06-27T06:39:07.034Z,70.4
2018-06-27T06:40:08.494Z,70.9
2018-06-27T06:41:09.977Z,70.9
2018-06-27T06:42:11.427Z,71.1
2018-06-27T06:43:12.869Z,71.3
2018-06-27T06:44:14.365Z,70.1
2018-06-27T06:45:15.791Z,70.3
2018-06-27T06:46:17.273Z,69.4
2018-06-27T06:47:18.688Z,70.1
2018-06-27T06:48:20.131Z,69.9
2018-06-27T06:49:21.588Z,70.1
2018-06-27T06:50:23.061Z,69.9
2018-06-27T06:51:24.499Z,69.6
2018-06-27T06:52:25.998Z,68.5
2018-06-27T06:53:27.463Z,68.5
2018-06-27T06:54:28.918Z,68.1
2018-06-27T06:55:30.379Z,67.0
2018-06-27T06:56:31.868Z,67.0
2018-06-27T06:57:33.317Z,66.2
2018-06-27T06:58:34.762Z,67.2
2018-06-27T06:59:36.241Z,66.5
2018-06-27T07:00:37.688Z,66.6
2018-06-27T07:01:39.114Z,65.5
2018-06-27T07:02:40.559Z,65.2
2018-06-27T07:03:42.036Z,65.5
2018-06-27T07:04:43.497Z,65.0
2018-06-27T07:05:44.995Z,64.1
2018-06-27T07:06:46.420Z,64.7
2018-06-27T07:07:47.904Z,65.1
2018-06-27T07:08:49.352Z,64.8
2018-06-27T07:09:51.026Z,64.8
2018-06-27T07:10:52.467Z,64.6
2018-06-27T07:11:53.950Z,64.7
2018-06-27T07:12:55.394Z,63.0
2018-06-27T07:13:56.871Z,62.2
2018-06-27T07:14:58.369Z,62.8
2018-06-27T07:15:59.796Z,62.9
2018-06-27T07:17:01.289Z,62.6
2018-06-27T07:18:02.711Z,64.2
2018-06-27T07:19:04.355Z,62.8
2018-06-27T07:20:05.780Z,62.8
2018-06-27T07:21:07.268Z,62.7
2018-06-27T07:22:08.776Z,63.6
2018-06-27T07:23:10.267Z,62.5
2018-06-27T07:24:11.740Z,61.7
2018-06-27T07:25:13.213Z,62.4
2018-06-27T07:26:14.663Z,62.4
2018-06-27T07:27:16.203Z,61.8
2018-06-27T07:28:17.704Z,61.5
2018-06-27T07:29:19.158Z,61.5
2018-06-27T07:30:20.689Z,62.2
2018-06-27T07:31:22.283Z,61.4
2018-06-27T07:32:23.689Z,62.3
2018-06-27T07:33:25.198Z,62.3
2018-06-27T07:34:26.740Z,62.9
2018-06-27T07:35:28.219Z,62.0
2018-06-27T07:36:29.671Z,61.8
2018-06-27T07:37:31.095Z,60.9
2018-06-27T07:38:32.540Z,60.9
2018-06-27T07:39:34.045Z,60.8
2018-06-27T07:40:35.491Z,59.7
2018-06-27T07:41:37.097Z,60.5
2018-06-27T07:42:38.712Z,60.8
2018-06-27T07:43:40.583Z,60.1
2018-06-27T07:44:42.241Z,59.9
2018-06-27T07:45:43.906Z,61.2
2018-06-27T07:46:45.381Z,61.6
2018-06-27T07:47:47.051Z,61.6
2018-06-27T07:48:48.787Z,60.3
2018-06-27T07:49:50.254Z,60.9
2018-06-27T07:50:51.750Z,60.5
2018-06-27T07:51:53.169Z,60.6
2018-06-27T07:52:54.618Z,60.0
2018-06-27T07:53:56.315Z,59.5
2018-06-27T07:54:57.751Z,59.9
2018-06-27T07:55:59.513Z,60.6
2018-06-27T07:57:00.973Z,60.1
2018-06-27T07:58:02.398Z,59.5
2018-06-27T07:59:04.147Z,57.9
2018-06-27T08:00:05.642Z,57.2
2018-06-27T08:01:07.104Z,57.5
2018-06-27T08:02:08.575Z,58.9
2018-06-27T08:03:10.024Z,60.7
2018-06-27T08:04:11.837Z,60.5
2018-06-27T08:05:13.564Z,60.6
2018-06-27T08:06:15.334Z,60.0
2018-06-27T08:07:17.129Z,60.0
2018-06-27T08:08:18.749Z,60.3
2018-06-27T08:09:20.193Z,60.0
2018-06-27T08:10:21.697Z,58.7
2018-06-27T08:11:23.209Z,58.7
2018-06-27T08:12:24.720Z,58.6
2018-06-27T08:13:26.372Z,58.5
2018-06-27T08:14:27.836Z,57.7
2018-06-27T08:15:29.315Z,56.7
2018-06-27T08:16:30.823Z,56.3
2018-06-27T08:17:32.585Z,56.8
2018-06-27T08:18:34.392Z,56.8
2018-06-27T08:19:36.106Z,58.1
2018-06-27T08:20:37.863Z,58.8
2018-06-27T08:21:39.357Z,58.9
2018-06-27T08:22:40.808Z,58.7
2018-06-27T08:23:42.336Z,58.0
2018-06-27T08:24:43.778Z,57.8
2018-06-27T08:25:45.233Z,56.6
2018-06-27T08:26:46.899Z,56.0
2018-06-27T08:27:48.638Z,56.7
2018-06-27T08:28:50.182Z,56.3
2018-06-27T08:29:51.675Z,55.5
2018-06-27T08:30:53.140Z,56.1
2018-06-27T08:31:54.829Z,56.1
2018-06-27T08:32:56.341Z,55.0
2018-06-27T08:33:57.803Z,55.5
2018-06-27T08:34:59.463Z,55.5
2018-06-27T08:36:00.989Z,55.7
2018-06-27T08:37:02.432Z,54.9
2018-06-27T08:38:03.898Z,54.8
2018-06-27T08:39:05.461Z,54.8
2018-06-27T08:40:06.966Z,56.0
2018-06-27T08:41:08.488Z,54.4
2018-06-27T08:42:09.940Z,54.0
2018-06-27T08:43:11.427Z,53.1
2018-06-27T08:44:12.913Z,52.5
2018-06-27T08:45:14.404Z,52.5
2018-06-27T08:46:15.857Z,54.3
2018-06-27T08:47:17.532Z,52.4
2018-06-27T08:48:19.017Z,54.0
2018-06-27T08:49:20.455Z,52.4
2018-06-27T08:50:21.892Z,52.5
2018-06-27T08:51:23.379Z,51.6
2018-06-27T08:52:24.950Z,52.6
2018-06-27T08:53:26.387Z,51.5
2018-06-27T08:54:27.851Z,50.6
2018-06-27T08:55:29.631Z,49.6
2018-06-27T08:56:31.456Z,52.2
2018-06-27T08:57:33.209Z,52.7
2018-06-27T08:58:34.743Z,51.3
2018-06-27T08:59:36.181Z,52.0
2018-06-27T09:00:37.627Z,51.6
2018-06-27T09:01:39.300Z,52.2
2018-06-27T09:02:40.784Z,51.3
2018-06-27T09:03:42.474Z,52.2
2018-06-27T09:04:44.224Z,52.7
2018-06-27T09:05:46.005Z,51.9
2018-06-27T09:06:47.709Z,51.8
2018-06-27T09:07:49.486Z,50.7
2018-06-27T09:08:51.086Z,50.6
2018-06-27T09:09:52.903Z,49.6
2018-06-27T09:10:54.430Z,49.8
2018-06-27T09:11:55.900Z,50.7
2018-06-27T09:12:57.611Z,49.7
2018-06-27T09:13:59.181Z,50.7
2018-06-27T09:15:00.721Z,51.0
2018-06-27T09:16:02.266Z,49.5
2018-06-27T09:17:03.791Z,50.9
2018-06-27T09:18:05.280Z,50.8
2018-06-27T09:19:06.729Z,48.9
2018-06-27T09:20:08.212Z,47.3
2018-06-27T09:21:09.726Z,47.7
2018-06-27T09:22:11.202Z,47.6
2018-06-27T09:23:12.678Z,47.2
2018-06-27T09:24:14.144Z,47.9
2018-06-27T09:25:15.636Z,47.9
2018-06-27T09:26:17.114Z,48.6
2018-06-27T09:27:18.626Z,49.7
2018-06-27T09:28:20.337Z,49.0
2018-06-27T09:29:21.954Z,47.6
2018-06-27T09:30:23.666Z,46.7
2018-06-27T09:31:25.251Z,47.9
2018-06-27T09:32:26.701Z,47.7
2018-06-27T09:33:28.416Z,47.9
2018-06-27T09:34:30.034Z,47.1
2018-06-27T09:35:31.752Z,47.0
2018-06-27T09:36:33.265Z,46.0
2018-06-27T09:37:34.793Z,46.6
2018-06-27T09:38:36.312Z,46.4
2018-06-27T09:39:37.882Z,44.7
2018-06-27T09:40:39.378Z,45.0
2018-06-27T09:41:41.014Z,44.7
2018-06-27T09:42:42.564Z,44.4
2018-06-27T09:43:44.115Z,44.6
2018-06-27T09:44:45.785Z,44.1
2018-06-27T09:45:47.373Z,42.6
2018-06-27T09:46:48.880Z,44.7
2018-06-27T09:47:50.596Z,44.7
2018-06-27T09:48:52.111Z,43.1
2018-06-27T09:49:53.839Z,42.9
2018-06-27T09:50:55.411Z,43.1
2018-06-27T09:51:56.967Z,43.3
2018-06-27T09:52:58.531Z,42.4
2018-06-27T09:54:00.284Z,42.4
2018-06-27T09:55:02.124Z,41.0
2018-06-27T09:56:03.692Z,41.2
2018-06-27T09:57:05.247Z,41.4
2018-06-27T09:58:06.849Z,41.3
2018-06-27T09:59:08.428Z,42.0
2018-06-27T10:00:10.127Z,43.2
2018-06-27T10:01:11.870Z,43.2
2018-06-27T10:02:13.469Z,44.0
2018-06-27T10:03:14.964Z,43.3
2018-06-27T10:04:16.463Z,41.8
2018-06-27T10:05:18.278Z,41.6
2018-06-27T10:06:19.878Z,41.0
2018-06-27T10:07:21.562Z,41.5
2018-06-27T10:08:23.353Z,42.4
2018-06-27T10:09:24.940Z,41.5
2018-06-27T10:10:26.392Z,40.8
2018-06-27T10:11:28.005Z,40.5
2018-06-27T10:12:29.460Z,40.4
2018-06-27T10:13:31.019Z,40.1
2018-06-27T10:14:32.572Z,39.0
2018-06-27T10:15:34.236Z,40.6
2018-06-27T10:16:35.984Z,40.0
2018-06-27T10:17:37.712Z,39.6
2018-06-27T10:18:39.445Z,39.2
2018-06-27T10:19:41.123Z,38.6
2018-06-27T10:20:42.910Z,38.1
2018-06-27T10:21:44.633Z,38.6
2018-06-27T10:22:46.359Z,37.9
2018-06-27T10:23:48.060Z,38.4
2018-06-27T10:24:49.672Z,38.3
2018-06-27T10:25:51.265Z,37.2
2018-06-27T10:26:52.810Z,36.7
2018-06-27T10:27:54.320Z,37.3
2018-06-27T10:28:55.818Z,37.3
2018-06-27T10:29:57.336Z,38.6
2018-06-27T10:30:59.372Z,40.4
2018-06-27T10:32:01.010Z,40.9
2018-06-27T10:33:02.755Z,40.9
2018-06-27T10:34:04.530Z,39.1
2018-06-27T10:35:06.206Z,40.9
2018-06-27T10:36:07.992Z,40.4
2018-06-27T10:37:09.597Z,40.2
2018-06-27T10:38:11.167Z,39.7
2018-06-27T10:39:12.809Z,38.3
2018-06-27T10:40:14.306Z,38.0
2018-06-27T10:41:15.774Z,37.0
2018-06-27T10:42:17.436Z,36.8
2018-06-27T10:43:19.153Z,37.3
2018-06-27T10:44:21.493Z,36.8
2018-06-27T10:45:23.147Z,38.0
2018-06-27T10:46:24.758Z,38.1
2018-06-27T10:47:26.347Z,38.0
2018-06-27T10:48:28.287Z,37.4
2018-06-27T10:49:30.468Z,36.8
2018-06-27T10:50:32.125Z,37.1
2018-06-27T10:51:34.321Z,36.0
2018-06-27T10:52:36.436Z,34.5
2018-06-27T10:53:38.232Z,34.6
2018-06-27T10:54:40.236Z,35.7
2018-06-27T10:55:42.384Z,36.9
2018-06-27T10:56:44.317Z,38.1
2018-06-27T10:57:46.555Z,37.9
2018-06-27T10:58:48.727Z,38.3
2018-06-27T10:59:50.823Z,36.8
2018-06-27T11:00:52.630Z,36.0
2018-06-27T11:01:54.583Z,35.7
2018-06-27T11:02:56.702Z,35.6
2018-06-27T11:03:59.045Z,35.4
2018-06-27T11:05:01.115Z,36.8
2018-06-27T11:06:02.972Z,38.4
2018-06-27T11:07:04.959Z,38.0
2018-06-27T11:08:06.606Z,39.9
2018-06-27T11:09:09.242Z,40.9
2018-06-27T11:10:11.171Z,40.9
2018-06-27T11:11:13.114Z,41.5
2018-06-27T11:12:15.351Z,41.3
2018-06-27T11:13:17.343Z,41.5
2018-06-27T11:14:19.307Z,41.0
2018-06-27T11:15:21.249Z,41.0
2018-06-27T11:16:22.873Z,41.1
2018-06-27T11:17:24.632Z,40.6
2018-06-27T11:18:26.445Z,39.0
2018-06-27T11:19:28.309Z,39.3
2018-06-27T11:20:30.464Z,37.3
2018-06-27T11:21:32.394Z,37.6
2018-06-27T11:22:34.687Z,36.7
2018-06-27T11:23:36.435Z,37.2
2018-06-27T11:24:38.549Z,35.9
2018-06-27T11:25:40.989Z,35.4
2018-06-27T11:26:42.937Z,35.3
2018-06-27T11:27:44.727Z,34.4
2018-06-27T11:28:47.106Z,35.6
2018-06-27T11:29:48.948Z,35.2
2018-06-27T11:30:50.651Z,35.4
2018-06-27T11:31:53.517Z,36.3
2018-06-27T11:32:55.862Z,35.1
2018-06-27T11:33:57.872Z,34.0
2018-06-27T11:34:59.934Z,33.4
2018-06-27T11:36:01.748Z,34.5
2018-06-27T11:37:04.057Z,34.9
2018-06-27T11:38:06.155Z,35.7
2018-06-27T11:39:07.989Z,36.6
2018-06-27T11:40:10.424Z,36.7
2018-06-27T11:41:12.692Z,36.9
2018-06-27T11:42:14.969Z,36.7
2018-06-27T11:43:16.929Z,36.8
2018-06-27T11:44:18.650Z,36.8
2018-06-27T11:45:20.604Z,37.2
2018-06-27T11:46:22.557Z,36.5
2018-06-27T11:47:25.274Z,36.5
2018-06-27T11:48:27.057Z,36.6
2018-06-27T11:49:28.854Z,35.5
2018-06-27T11:50:30.820Z,34.9
2018-06-27T11:51:32.682Z,33.7
2018-06-27T11:52:34.392Z,34.3
2018-06-27T11:53:36.093Z,35.4
2018-06-27T11:54:37.878Z,34.7
2018-06-27T11:55:40.099Z,34.4
2018-06-27T11:56:41.930Z,35.1
2018-06-27T11:57:43.724Z,35.3
2018-06-27T11:58:45.795Z,35.7
2018-06-27T11:59:47.744Z,35.9
2018-06-27T12:00:49.652Z,37.0
2018-06-27T12:01:51.617Z,38.2
2018-06-27T12:02:56.807Z,37.0
2018-06-27T12:03:58.685Z,37.0
2018-06-27T12:05:00.780Z,35.4
2018-06-27T12:06:04.157Z,35.7
2018-06-27T12:07:07.829Z,36.5
2018-06-27T12:08:09.547Z,34.4
2018-06-27T12:09:14.937Z,34.0
2018-06-27T12:10:23.865Z,33.9
2018-06-27T12:11:25.750Z,33.4
2018-06-27T12:12:27.701Z,34.2
2018-06-27T12:13:29.710Z,33.4
2018-06-27T12:14:31.464Z,34.1
2018-06-27T12:15:33.234Z,35.7
2018-06-27T12:16:35.399Z,35.1
2018-06-27T12:17:37.178Z,35.3
2018-06-27T12:18:38.953Z,35.4
2018-06-27T12:19:40.614Z,34.8
2018-06-27T12:20:42.736Z,34.3
2018-06-27T12:21:44.586Z,34.3
2018-06-27T12:22:46.366Z,33.9
2018-06-27T12:23:48.188Z,33.7
2018-06-27T12:24:50.415Z,33.9
2018-06-27T12:25:52.334Z,32.9
2018-06-27T12:26:54.977Z,33.5
2018-06-27T12:27:56.618Z,32.3
2018-06-27T12:28:58.547Z,33.2
2018-06-27T12:30:00.670Z,32.4
2018-06-27T12:31:02.510Z,32.4
2018-06-27T12:32:04.440Z,31.3
2018-06-27T12:33:06.141Z,32.6
2018-06-27T12:34:08.127Z,32.6
2018-06-27T12:35:09.858Z,31.7
2018-06-27T12:36:11.673Z,33.3
2018-06-27T12:37:13.559Z,33.4
2018-06-27T12:38:15.437Z,32.5
2018-06-27T12:39:17.192Z,30.9
2018-06-27T12:40:19.036Z,31.6
2018-06-27T12:41:20.785Z,32.2
2018-06-27T12:42:22.844Z,30.9
2018-06-27T12:43:24.624Z,30.9
2018-06-27T12:44:26.506Z,30.1
2018-06-27T12:45:28.304Z,30.9
2018-06-27T12:46:30.040Z,30.8
2018-06-27T12:47:31.798Z,31.3
2018-06-27T12:48:33.501Z,32.3
2018-06-27T12:49:35.874Z,31.5
2018-06-27T12:50:37.534Z,32.3
2018-06-27T12:51:39.217Z,33.5
2018-06-27T12:52:41.783Z,33.8
2018-06-27T12:53:44.071Z,33.9
2018-06-27T12:54:45.730Z,33.6
2018-06-27T12:55:47.743Z,33.7
2018-06-27T12:56:49.698Z,33.8
2018-06-27T12:57:51.554Z,32.5
2018-06-27T12:58:53.444Z,31.0
2018-06-27T12:59:55.320Z,30.3
2018-06-27T13:00:56.946Z,30.2
2018-06-27T13:01:58.801Z,29.3
2018-06-27T13:03:00.453Z,29.8
2018-06-27T13:04:02.050Z,30.3
2018-06-27T13:05:03.683Z,27.6
2018-06-27T13:06:05.916Z,25.9
2018-06-27T13:07:08.093Z,26.2
2018-06-27T13:08:10.179Z,26.2
2018-06-27T13:09:11.927Z,25.8
2018-06-27T13:10:13.419Z,24.3
2018-06-27T13:11:15.092Z,24.8
2018-06-27T13:12:16.712Z,24.6
2018-06-27T13:13:18.360Z,24.7
2018-06-27T13:14:20.032Z,24.8
2018-06-27T13:15:22.048Z,24.5
2018-06-27T13:16:23.624Z,24.8
2018-06-27T13:17:25.261Z,23.8
2018-06-27T13:18:26.917Z,22.9
2018-06-27T13:19:29.991Z,22.9
2018-06-27T13:20:32.239Z,24.1
2018-06-27T13:21:34.779Z,24.2
2018-06-27T13:22:36.461Z,23.7
2018-06-27T13:23:38.113Z,22.9
2018-06-27T13:24:40.858Z,23.8
2018-06-27T13:25:42.454Z,23.7
2018-06-27T13:26:44.038Z,24.5
2018-06-27T13:27:46.541Z,24.0
2018-06-27T13:28:48.444Z,23.7
2018-06-27T13:29:50.367Z,22.6
2018-06-27T13:30:52.506Z,22.9
2018-06-27T13:31:54.174Z,22.8
2018-06-27T13:32:56.419Z,23.7
2018-06-27T13:33:57.999Z,24.5
2018-06-27T13:35:00.379Z,24.3
2018-06-27T13:36:02.003Z,25.0
2018-06-27T13:37:03.649Z,24.5
2018-06-27T13:38:05.790Z,23.9
2018-06-27T13:39:07.793Z,24.0
2018-06-27T13:40:10.071Z,23.9
2018-06-27T13:41:12.467Z,23.7